CheckWX is a tool to help pilots better visualize weather data.  It is not intended as a substitute for an official pre-flight weather briefing.

20:30:30 UTC

VHHH TAF
Chek Lap Kok International Airport
Hong Kong, Hong Kong
TAF VHHH 221700Z 2218/2324 03010KT 7000 FEW012 SCT030 TX25/2218Z TX22/2306Z TN19/2223Z TEMPO 2218/2221 2500 -TSRA SHRA FEW010CB SCT020 TEMPO 2221/2224 3500 RA BECMG 2314/2316 09015KT

Mar-22@
18:00 UTC

Mar-22 @ 18:00 UTC

Mar-23@
14:00 UTC

Mar-23 @ 14:00 UTC

TAF VHHH 221700Z 2218/2324 03010KT 7000 FEW012 SCT030 TX25/2218Z TX22/2306Z TN19/2223Z
Wind
  • 030° at 10 KTS
Cloud Levels
  • Few at 1,200' AGL
  • Scattered at 3,000' AGL

Mar-22@
18:00 UTC

Mar-22 @ 18:00 UTC

Mar-22@
21:00 UTC

Mar-22 @ 21:00 UTC

TEMPO 2218/2221 2500 -TSRA SHRA FEW010CB SCT020

Temporary

Temporary Changes expected for less than half the time period

Conditions
Light Thunderstorm, Light Rain, Rain
Cloud Levels
  • Few at 1,000' AGL
  • Scattered at 2,000' AGL

Mar-22@
21:00 UTC

Mar-22 @ 21:00 UTC

Mar-23@
00:00 UTC

Mar-23 @ 00:00 UTC

TEMPO 2221/2224 3500 RA

Temporary

Temporary Changes expected for less than half the time period

Conditions
Rain

Mar-23@
14:00 UTC

Mar-23 @ 14:00 UTC

Mar-24@
00:00 UTC

Mar-24 @ 00:00 UTC

BECMG 2314/2316 09015KT

Becoming

Becoming Conditions expected by Sat, Mar 23, 2019 @ 16:00 UTC

Wind
  • 090° at 15 KTS
Cloud Levels
  • Few at 1,200' AGL
  • Scattered at 3,000' AGL